Tuesday, May 26, 2015, 9:28 PM EDT
Back to Local

KMPO, Mt Pocono Pocono Mountains

Location: Pocono Summit, PA, United States Lat: 41.133
Local Time: 9:28 PM EDT ( 1:28 GMT) Lon: -75.383
Time Zone: US/Eastern Elev: 1915 ft

Show me the last for .
Show Decoded

2015-05-26 20:53 METAR KMPO 270053Z AUTO 19007KT 10SM CLR 23/15 A3018 RMK AO2 SLP206 T02280150 =
2015-05-26 19:53 METAR KMPO 262353Z AUTO 19007KT 10SM CLR 24/15 A3017 RMK AO2 SLP206 T02440150
                 10283 20244 57008 =
2015-05-26 18:53 METAR KMPO 262253Z AUTO 21007KT 10SM FEW043 26/15 A3019 RMK AO2 SLP210 T02610150
                 =
2015-05-26 16:53 METAR KMPO 262053Z AUTO 25009KT 10SM CLR 27/15 A3020 RMK AO2 LTG DSNT NE SLP216
                 T02670150 56008 =
2015-05-26 14:53 METAR KMPO 261853Z AUTO 22010KT 10SM FEW070 BKN080 27/15 A3021 RMK AO2 SLP218
                 T02720150 =
2015-05-26 13:53 METAR KMPO 261753Z AUTO 26007KT 10SM FEW045 BKN075 BKN090 27/15 A3023 RMK AO2
                 SLP224 T02670150 10278 20194 56007 =
2015-05-26 12:53 METAR KMPO 261653Z AUTO 27008KT 240V310 10SM FEW046 FEW055 27/14 A3023 RMK AO2
                 SLP225 T02720144 =
2015-05-26 11:53 METAR KMPO 261553Z AUTO 30004KT 10SM CLR 26/15 A3024 RMK AO2 SLP229 T02610150 =
2015-05-26 10:53 METAR KMPO 261453Z AUTO 25006KT 10SM CLR 24/15 A3025 RMK AO2 SLP232 T02440150
                 53003 =
2015-05-26 08:53 METAR KMPO 261253Z AUTO 27008KT 10SM CLR 22/14 A3024 RMK AO2 SLP230 T02170139 =
2015-05-26 07:53 METAR KMPO 261153Z AUTO 28005KT 10SM FEW110 19/14 A3024 RMK AO2 SLP230 T01940139
                 10194 20161 51013 =
2015-05-26 06:53 METAR KMPO 261053Z AUTO 27005KT 10SM FEW110 17/13 A3022 RMK AO2 SLP225 T01720133
                 $ =
2015-05-26 05:53 METAR KMPO 260953Z AUTO 29007KT 10SM SCT110 16/13 A3022 RMK AO2 SLP222 T01610133
                 $ =
2015-05-26 04:53 METAR KMPO 260853Z AUTO 29006KT 10SM CLR 17/13 A3020 RMK AO2 SLP214 T01670133
                 55003 $ =
2015-05-26 03:53 METAR KMPO 260753Z AUTO 29007KT 10SM CLR 17/13 A3020 RMK AO2 SLP214 T01720133 $
                 =
2015-05-26 01:53 METAR KMPO 260553Z AUTO 24008KT 5SM HZ CLR 17/14 A3021 RMK AO2 SLP217 T01720139
                 10228 20172 55004 $ =
2015-05-26 00:53 METAR KMPO 260453Z AUTO 23008KT 6SM HZ CLR 18/13 A3021 RMK AO2 SLP217 T01830133
                 402780161 $ =
2015-05-25 23:53 METAR KMPO 260353Z AUTO 23009KT 5SM HZ CLR 19/13 A3022 RMK AO2 SLP222 T01890133
                 $ =
2015-05-25 22:53 METAR KMPO 260253Z AUTO 21009G17KT 7SM CLR 19/13 A3022 RMK AO2 SLP223 T01940133
                 51008 $ =
2015-05-25 21:53 METAR KMPO 260153Z AUTO 21006KT 10SM CLR 20/14 A3022 RMK AO2 SLP224 T02000139 $
                 =

Support USWX by starting your Amazon purchase here.